Time;durP1;ratioP1;P1;durP2;ratioP2;P2;SDS_P1;SDS_P2;PMS_P1;PMS_P2;Temp;Humidity;BMP_temperature;BMP_pressure;BME280_temperature;BME280_humidity;BME280_pressure;Samples;Min_cycle;Max_cycle;Signal;HPM_P1;HPM_P2
2021/09/09 00:01:17;;;;;;;29.25;24.73;;;26.30;98.70;;;;;;5097123;28;20028;-88
2021/09/09 00:03:43;;;;;;;28.20;24.27;;;26.30;98.50;;;;;;5095357;28;20082;-87
2021/09/09 00:06:09;;;;;;;28.52;24.17;;;26.30;98.50;;;;;;5095733;28;20343;-87
2021/09/09 00:08:34;;;;;;;30.23;24.98;;;26.30;98.50;;;;;;5078836;28;20024;-86
2021/09/09 00:11:00;;;;;;;31.75;26.00;;;26.30;98.50;;;;;;5078801;28;20394;-86
2021/09/09 00:13:26;;;;;;;31.77;26.90;;;26.20;98.50;;;;;;5095996;28;20119;-86
2021/09/09 00:15:52;;;;;;;30.27;25.42;;;26.20;98.50;;;;;;5098475;28;20173;-86
2021/09/09 00:18:17;;;;;;;32.92;27.40;;;26.30;98.60;;;;;;5100394;28;20505;-86
2021/09/09 00:20:43;;;;;;;32.28;27.17;;;26.30;98.60;;;;;;5067982;28;20047;-86
2021/09/09 00:23:08;;;;;;;30.05;26.05;;;26.30;98.60;;;;;;5097165;28;20069;-86
2021/09/09 00:25:34;;;;;;;32.13;27.85;;;26.30;98.60;;;;;;5096867;28;20023;-86
2021/09/09 00:28:00;;;;;;;33.80;28.63;;;26.30;98.60;;;;;;5078406;28;20449;-87
2021/09/09 00:30:25;;;;;;;32.50;27.95;;;26.30;98.60;;;;;;5078787;28;20034;-86
2021/09/09 00:32:51;;;;;;;33.20;28.33;;;26.30;98.60;;;;;;5096029;28;20024;-87
2021/09/09 00:35:17;;;;;;;36.55;30.40;;;26.30;98.60;;;;;;5096546;28;20405;-86
2021/09/09 00:37:43;;;;;;;36.20;31.10;;;26.30;98.60;;;;;;5094315;28;20032;-87
2021/09/09 00:40:09;;;;;;;35.95;30.33;;;26.30;98.60;;;;;;5061583;28;20035;-87
2021/09/09 00:42:35;;;;;;;33.50;29.25;;;26.30;98.60;;;;;;5095283;28;20044;-88
2021/09/09 00:45:00;;;;;;;32.70;29.13;;;26.30;98.60;;;;;;5095926;28;20032;-87
2021/09/09 00:47:26;;;;;;;35.92;30.70;;;26.30;98.70;;;;;;5094558;28;20043;-87
2021/09/09 00:49:52;;;;;;;36.38;30.65;;;26.30;98.70;;;;;;5094733;28;20036;-87
2021/09/09 00:52:17;;;;;;;38.70;30.50;;;26.30;98.70;;;;;;5094551;28;20036;-87
2021/09/09 00:54:45;;;;;;;33.70;29.38;;;26.30;98.70;;;;;;5094194;28;20482;-87
2021/09/09 00:57:11;;;;;;;36.83;29.80;;;26.30;98.70;;;;;;5094780;28;20032;-87
2021/09/09 00:59:37;;;;;;;37.92;32.42;;;26.30;98.70;;;;;;5094546;28;20036;-87
2021/09/09 01:02:04;;;;;;;35.80;31.13;;;26.30;98.70;;;;;;5095026;28;20115;-88
2021/09/09 01:04:29;;;;;;;39.05;31.67;;;26.30;98.70;;;;;;5061072;28;20043;-86
2021/09/09 01:06:56;;;;;;;36.03;31.45;;;26.30;98.70;;;;;;5077414;28;20036;-86
2021/09/09 01:09:23;;;;;;;38.85;32.65;;;26.30;98.80;;;;;;5094567;28;20082;-87
2021/09/09 01:11:49;;;;;;;38.42;32.40;;;26.20;98.70;;;;;;5094303;28;20035;-87
2021/09/09 01:14:16;;;;;;;38.75;32.72;;;26.30;98.80;;;;;;5094225;28;20077;-87
2021/09/09 01:16:44;;;;;;;39.45;32.75;;;26.30;98.80;;;;;;5093734;28;20055;-87
2021/09/09 01:19:11;;;;;;;38.70;32.38;;;26.30;98.80;;;;;;5095337;28;20035;-86
2021/09/09 01:21:37;;;;;;;39.92;34.13;;;26.30;98.80;;;;;;5094113;28;20077;-84
2021/09/09 01:24:12;;;;;;;41.95;34.60;;;26.30;98.80;;;;;;5093818;28;20470;-85
2021/09/09 01:26:52;;;;;;;40.47;34.55;;;26.30;98.80;;;;;;5094197;28;20062;-86
2021/09/09 01:29:20;;;;;;;37.58;33.30;;;26.30;98.80;;;;;;5094142;28;20056;-87
2021/09/09 01:31:46;;;;;;;39.58;34.05;;;26.30;98.80;;;;;;5077409;28;20114;-87
2021/09/09 01:34:12;;;;;;;41.22;35.05;;;26.30;98.80;;;;;;5094080;28;20024;-87
2021/09/09 01:36:38;;;;;;;39.95;35.60;;;26.30;98.70;;;;;;5095185;28;20042;-87
2021/09/09 01:39:04;;;;;;;44.55;37.65;;;26.20;98.70;;;;;;5094203;28;20115;-87
2021/09/09 01:41:29;;;;;;;46.92;38.53;;;26.30;98.70;;;;;;5093953;28;20525;-87
2021/09/09 01:43:55;;;;;;;44.95;38.13;;;26.30;98.60;;;;;;5076760;28;20039;-87
2021/09/09 01:46:20;;;;;;;45.50;38.25;;;26.30;98.60;;;;;;5060186;28;20081;-87
2021/09/09 01:48:46;;;;;;;46.88;38.72;;;26.30;98.60;;;;;;5093345;28;20028;-87
2021/09/09 01:51:12;;;;;;;45.17;39.10;;;26.30;98.60;;;;;;5076394;28;20385;-87
2021/09/09 01:53:38;;;;;;;45.00;38.72;;;26.30;98.60;;;;;;5095241;28;20111;-87
2021/09/09 01:56:03;;;;;;;45.55;38.30;;;26.30;98.60;;;;;;5093071;28;20028;-87
2021/09/09 01:58:29;;;;;;;44.17;37.67;;;26.30;98.60;;;;;;5094760;28;20028;-87
2021/09/09 02:00:57;;;;;;;42.00;36.92;;;26.30;98.60;;;;;;5093339;28;20036;-87
2021/09/09 02:03:24;;;;;;;42.90;37.08;;;26.30;98.60;;;;;;5093376;28;20035;-87
2021/09/09 02:05:50;;;;;;;44.60;38.63;;;26.20;98.50;;;;;;5094378;28;20488;-88
2021/09/09 02:08:15;;;;;;;42.75;35.83;;;26.30;98.60;;;;;;5094955;28;20024;-87
2021/09/09 02:10:41;;;;;;;44.83;38.08;;;26.30;98.50;;;;;;5076401;28;20484;-87
2021/09/09 02:13:07;;;;;;;42.95;37.60;;;26.30;98.50;;;;;;5076066;28;20116;-87
2021/09/09 02:15:32;;;;;;;43.92;37.35;;;26.30;98.50;;;;;;5093228;28;20515;-87
2021/09/09 02:17:58;;;;;;;44.10;38.33;;;26.30;98.70;;;;;;5075790;28;20097;-87
2021/09/09 02:20:23;;;;;;;42.72;37.40;;;26.30;98.50;;;;;;5093833;28;20032;-87
2021/09/09 02:22:49;;;;;;;43.13;36.10;;;26.30;98.50;;;;;;5093570;28;20028;-87
2021/09/09 02:25:15;;;;;;;41.55;35.72;;;26.30;98.50;;;;;;5094060;28;20173;-88
2021/09/09 02:27:40;;;;;;;44.72;36.95;;;26.20;98.50;;;;;;5076416;28;20481;-87
2021/09/09 02:30:08;;;;;;;41.97;35.70;;;26.20;98.40;;;;;;5093949;28;20032;-87
2021/09/09 02:32:34;;;;;;;44.92;37.38;;;26.20;98.40;;;;;;5094278;28;20032;-87
2021/09/09 02:34:59;;;;;;;41.92;36.13;;;26.30;98.50;;;;;;5093804;28;20028;-87
2021/09/09 02:37:25;;;;;;;41.67;35.45;;;26.20;98.40;;;;;;5075931;28;20040;-87
2021/09/09 02:39:50;;;;;;;41.60;37.03;;;26.20;98.40;;;;;;5094319;28;20032;-87
2021/09/09 02:42:16;;;;;;;41.88;36.33;;;26.20;98.40;;;;;;5094142;28;20054;-87
2021/09/09 02:44:42;;;;;;;41.38;34.78;;;26.20;98.40;;;;;;5092815;28;20028;-87
2021/09/09 02:47:08;;;;;;;42.47;35.70;;;26.20;98.40;;;;;;5094083;28;20034;-87
2021/09/09 02:49:33;;;;;;;38.40;34.22;;;26.20;98.40;;;;;;5093726;28;20028;-86
2021/09/09 02:51:59;;;;;;;41.30;35.63;;;26.20;98.40;;;;;;5092846;28;20474;-87
2021/09/09 02:54:25;;;;;;;38.22;33.75;;;26.20;98.40;;;;;;5075659;28;20027;-86
2021/09/09 02:56:50;;;;;;;41.38;35.05;;;26.20;98.40;;;;;;5092446;28;20436;-87
2021/09/09 02:59:19;;;;;;;39.10;34.80;;;26.20;98.40;;;;;;5092324;28;20050;-87
2021/09/09 03:01:45;;;;;;;41.83;35.08;;;26.20;98.40;;;;;;5058972;28;20088;-86
2021/09/09 03:04:10;;;;;;;41.42;34.75;;;26.20;98.40;;;;;;5092521;28;20427;-87
2021/09/09 03:06:36;;;;;;;39.13;33.60;;;26.20;98.40;;;;;;5092098;28;20584;-87
2021/09/09 03:09:02;;;;;;;38.00;33.88;;;26.20;98.40;;;;;;5092370;28;20032;-87
2021/09/09 03:11:28;;;;;;;41.08;34.83;;;26.20;98.40;;;;;;5092441;28;20391;-86
2021/09/09 03:13:54;;;;;;;37.85;33.08;;;26.20;98.30;;;;;;5092187;28;20031;-87
2021/09/09 03:16:20;;;;;;;40.05;34.60;;;26.20;98.30;;;;;;5092863;28;20036;-87
2021/09/09 03:18:45;;;;;;;37.25;33.17;;;26.20;98.30;;;;;;5092268;28;20444;-87
2021/09/09 03:21:11;;;;;;;36.45;32.15;;;26.20;98.30;;;;;;5092091;28;20086;-86
2021/09/09 03:23:38;;;;;;;37.97;32.28;;;26.20;98.30;;;;;;5092877;28;20028;-87
2021/09/09 03:26:03;;;;;;;37.20;32.30;;;26.20;98.30;;;;;;5075319;28;20044;-87
2021/09/09 03:28:29;;;;;;;37.97;31.80;;;26.20;98.30;;;;;;5093690;28;20027;-87
2021/09/09 03:30:55;;;;;;;37.88;31.55;;;26.20;98.30;;;;;;5092275;28;20056;-87
2021/09/09 03:33:21;;;;;;;36.67;31.45;;;26.20;98.30;;;;;;5091953;28;20056;-87
2021/09/09 03:35:50;;;;;;;35.67;31.33;;;26.20;98.30;;;;;;5091770;28;20056;-86
2021/09/09 03:38:15;;;;;;;34.55;30.08;;;26.20;98.30;;;;;;5091881;28;20539;-87
2021/09/09 03:40:41;;;;;;;34.58;30.83;;;26.20;98.40;;;;;;5091544;28;20027;-87
2021/09/09 03:43:06;;;;;;;34.25;30.55;;;26.20;98.40;;;;;;5074890;28;20036;-87
2021/09/09 03:45:32;;;;;;;32.78;29.23;;;26.20;98.40;;;;;;5093037;28;20496;-87
2021/09/09 03:47:58;;;;;;;33.45;29.10;;;26.20;98.50;;;;;;5075181;28;20028;-87
2021/09/09 03:50:23;;;;;;;33.97;29.13;;;26.20;98.50;;;;;;5075685;28;20028;-87
2021/09/09 03:52:49;;;;;;;31.95;28.45;;;26.20;98.50;;;;;;5075223;28;20035;-87
2021/09/09 03:55:15;;;;;;;33.22;28.85;;;26.20;98.50;;;;;;5074919;28;20069;-86
2021/09/09 03:57:40;;;;;;;30.95;27.27;;;26.20;98.50;;;;;;5091499;28;20151;-86
2021/09/09 04:00:07;;;;;;;30.13;26.80;;;26.20;98.60;;;;;;5091770;28;20030;-86
2021/09/09 04:02:33;;;;;;;31.27;27.02;;;26.20;98.60;;;;;;5091739;28;20063;-86
2021/09/09 04:04:58;;;;;;;31.10;26.98;;;26.20;98.60;;;;;;5093194;28;20404;-87
2021/09/09 04:07:24;;;;;;;29.65;26.40;;;26.10;98.50;;;;;;5091526;28;20036;-87
2021/09/09 04:09:50;;;;;;;29.83;25.83;;;26.20;98.60;;;;;;5074981;28;20393;-87
2021/09/09 04:12:17;;;;;;;30.02;25.63;;;26.20;98.60;;;;;;5092486;28;20032;-87
2021/09/09 04:14:43;;;;;;;30.17;26.65;;;26.10;98.60;;;;;;5092612;28;20035;-88
2021/09/09 04:17:08;;;;;;;29.52;25.80;;;26.20;98.60;;;;;;5091231;28;20055;-88
2021/09/09 04:19:34;;;;;;;31.00;26.63;;;26.20;98.70;;;;;;5092647;28;20043;-88
2021/09/09 04:22:02;;;;;;;29.88;25.38;;;26.20;98.70;;;;;;5092947;28;20100;-88
2021/09/09 04:24:28;;;;;;;27.80;24.80;;;26.20;98.60;;;;;;5092414;28;20028;-88
2021/09/09 04:26:53;;;;;;;29.00;25.83;;;26.20;98.60;;;;;;5091746;28;20051;-88
2021/09/09 04:29:19;;;;;;;27.92;24.70;;;26.20;98.60;;;;;;5092411;28;20456;-90
2021/09/09 04:31:45;;;;;;;28.30;25.20;;;26.20;98.60;;;;;;5091830;28;20055;-87
2021/09/09 04:34:10;;;;;;;28.13;24.60;;;26.20;98.60;;;;;;5092420;28;20029;-87
2021/09/09 04:36:36;;;;;;;28.42;23.92;;;26.20;98.60;;;;;;5095519;28;20032;-87
2021/09/09 04:39:02;;;;;;;27.90;24.08;;;26.20;98.60;;;;;;5095110;28;20043;-88
2021/09/09 04:41:28;;;;;;;28.73;24.83;;;26.20;98.60;;;;;;5094886;28;20529;-88
2021/09/09 04:43:53;;;;;;;25.83;22.85;;;26.20;98.60;;;;;;5095257;28;20105;-87
2021/09/09 04:46:19;;;;;;;25.23;22.52;;;26.20;98.60;;;;;;5094878;28;20438;-87
2021/09/09 04:48:45;;;;;;;27.60;24.23;;;26.20;98.60;;;;;;5095306;28;20105;-87
2021/09/09 04:51:11;;;;;;;26.30;22.83;;;26.20;98.60;;;;;;5095988;28;20032;-87
2021/09/09 04:53:36;;;;;;;26.45;23.65;;;26.20;98.60;;;;;;5095373;28;20029;-87
2021/09/09 04:56:03;;;;;;;25.17;22.38;;;26.20;98.60;;;;;;5095323;28;20028;-87
2021/09/09 04:58:28;;;;;;;25.95;23.15;;;26.20;98.60;;;;;;5096222;28;20035;-88
2021/09/09 05:00:54;;;;;;;24.70;22.00;;;26.20;98.60;;;;;;5078327;28;20132;-88
2021/09/09 05:03:20;;;;;;;26.70;23.55;;;26.20;98.60;;;;;;5095854;28;20061;-88
2021/09/09 05:05:45;;;;;;;26.55;21.52;;;26.20;98.60;;;;;;5094889;28;20028;-88
2021/09/09 05:08:11;;;;;;;24.85;22.17;;;26.20;98.60;;;;;;5095822;28;20032;-87
2021/09/09 05:10:37;;;;;;;24.55;21.92;;;26.20;98.60;;;;;;5095940;28;20020;-88
2021/09/09 05:13:03;;;;;;;24.00;20.85;;;26.10;98.50;;;;;;5096107;28;20024;-87
2021/09/09 05:15:29;;;;;;;25.42;22.65;;;26.20;98.60;;;;;;5077053;28;20036;-87
2021/09/09 05:17:54;;;;;;;25.95;21.83;;;26.10;98.50;;;;;;5094193;28;20063;-88
2021/09/09 05:20:20;;;;;;;23.80;20.40;;;26.10;98.50;;;;;;5095365;28;20028;-87
2021/09/09 05:22:49;;;;;;;23.52;21.02;;;26.20;98.50;;;;;;5077906;28;20039;-88
2021/09/09 05:25:15;;;;;;;25.13;20.60;;;26.10;98.50;;;;;;5094327;28;20046;-87
2021/09/09 05:27:41;;;;;;;23.02;20.60;;;26.10;98.50;;;;;;5094137;28;20142;-87
2021/09/09 05:30:08;;;;;;;22.88;20.45;;;26.20;98.50;;;;;;5095542;28;20032;-87
2021/09/09 05:32:33;;;;;;;22.65;20.17;;;26.10;98.50;;;;;;5094096;28;20028;-88
2021/09/09 05:35:00;;;;;;;23.77;20.10;;;26.10;98.50;;;;;;5094666;28;20081;-88
2021/09/09 05:37:26;;;;;;;22.60;19.92;;;26.10;98.50;;;;;;5094323;28;20032;-86
2021/09/09 05:39:51;;;;;;;22.05;19.52;;;26.10;98.50;;;;;;5096280;28;20458;-89
2021/09/09 05:42:18;;;;;;;23.85;20.10;;;26.10;98.50;;;;;;5095547;28;20029;-88
2021/09/09 05:44:43;;;;;;;24.27;21.25;;;26.10;98.50;;;;;;5094925;28;20055;-87
2021/09/09 05:47:09;;;;;;;21.25;19.05;;;26.10;98.50;;;;;;5094337;28;20470;-87
2021/09/09 05:49:38;;;;;;;21.70;19.13;;;26.10;98.50;;;;;;5095501;28;20024;-88
2021/09/09 05:52:05;;;;;;;22.13;18.73;;;26.10;98.50;;;;;;5095747;28;20024;-87
2021/09/09 05:54:34;;;;;;;21.33;18.40;;;26.10;98.50;;;;;;5095166;28;20055;-87
2021/09/09 05:57:01;;;;;;;22.98;19.10;;;26.10;98.50;;;;;;5095334;28;20047;-87
2021/09/09 05:59:27;;;;;;;21.90;18.60;;;26.10;98.50;;;;;;5095445;28;20027;-85
2021/09/09 06:01:53;;;;;;;20.48;18.27;;;26.10;98.50;;;;;;5098621;28;20501;-87
2021/09/09 06:04:20;;;;;;;20.33;17.30;;;26.10;98.50;;;;;;5106103;28;20036;-87
2021/09/09 06:06:47;;;;;;;19.08;17.10;;;26.10;98.50;;;;;;5095441;28;20081;-88
2021/09/09 06:09:14;;;;;;;20.92;18.65;;;26.10;98.50;;;;;;5094159;28;20111;-88
2021/09/09 06:11:40;;;;;;;20.13;17.95;;;26.10;98.50;;;;;;5094885;28;20034;-88
2021/09/09 06:14:06;;;;;;;20.50;18.30;;;26.10;98.50;;;;;;5093124;28;20123;-88
2021/09/09 06:16:32;;;;;;;21.05;18.77;;;26.10;98.40;;;;;;5094273;28;20111;-87
2021/09/09 06:18:59;;;;;;;19.58;17.48;;;26.10;98.40;;;;;;5093615;28;20463;-88
2021/09/09 06:21:25;;;;;;;19.42;17.33;;;26.10;98.40;;;;;;5094153;28;20078;-87
2021/09/09 06:23:50;;;;;;;19.83;17.73;;;26.10;98.40;;;;;;5094248;28;20458;-87
2021/09/09 06:26:17;;;;;;;18.75;16.80;;;26.10;98.40;;;;;;5092958;28;20039;-88
2021/09/09 06:28:43;;;;;;;19.77;17.02;;;26.10;98.40;;;;;;5075462;28;20177;-88
2021/09/09 06:31:09;;;;;;;20.15;16.05;;;26.10;98.40;;;;;;5095393;28;20063;-87
2021/09/09 06:33:35;;;;;;;19.33;17.25;;;26.10;98.40;;;;;;5093308;28;20081;-86
2021/09/09 06:36:01;;;;;;;20.23;18.00;;;26.10;98.40;;;;;;5094097;28;20423;-87
2021/09/09 06:38:26;;;;;;;20.50;17.63;;;26.10;98.40;;;;;;5076141;28;20043;-88
2021/09/09 06:40:52;;;;;;;19.77;17.33;;;26.10;98.40;;;;;;5094190;28;20024;-88
2021/09/09 06:43:18;;;;;;;20.13;16.92;;;26.10;98.40;;;;;;5092632;28;20085;-88
2021/09/09 06:45:43;;;;;;;18.00;16.10;;;26.10;98.40;;;;;;5092578;28;20452;-88
2021/09/09 06:48:09;;;;;;;18.88;16.73;;;26.10;98.40;;;;;;5092817;28;20024;-87
2021/09/09 06:50:35;;;;;;;18.23;15.82;;;26.10;98.30;;;;;;5092389;28;20393;-88
2021/09/09 06:53:01;;;;;;;18.10;16.08;;;26.10;98.30;;;;;;5092683;28;20541;-88
2021/09/09 06:55:26;;;;;;;17.17;15.35;;;26.10;98.30;;;;;;5093656;28;20039;-88
2021/09/09 06:57:52;;;;;;;18.38;15.27;;;26.10;98.20;;;;;;5092738;28;20032;-88
2021/09/09 07:00:18;;;;;;;18.33;15.63;;;26.10;98.20;;;;;;5075653;28;20036;-88
2021/09/09 07:02:43;;;;;;;18.05;15.40;;;26.10;98.20;;;;;;5090372;28;20083;-88
2021/09/09 07:05:11;;;;;;;17.88;15.63;;;26.10;98.10;;;;;;5075832;28;20040;-87
2021/09/09 07:07:38;;;;;;;17.77;14.25;;;26.10;98.10;;;;;;5094148;28;20031;-88
2021/09/09 07:10:04;;;;;;;16.73;14.35;;;26.10;98.00;;;;;;5093545;28;20114;-88
2021/09/09 07:12:29;;;;;;;17.38;14.80;;;26.10;98.00;;;;;;5076511;28;20112;-88
2021/09/09 07:14:55;;;;;;;16.63;14.13;;;26.10;98.00;;;;;;5092309;28;20481;-88
2021/09/09 07:17:20;;;;;;;16.70;14.02;;;26.10;98.00;;;;;;5091934;28;20603;-89
2021/09/09 07:19:50;;;;;;;17.02;13.75;;;26.10;98.00;;;;;;5091847;28;20519;-88
2021/09/09 07:22:19;;;;;;;14.95;12.65;;;26.10;98.00;;;;;;5092499;28;20051;-88
2021/09/09 07:24:45;;;;;;;16.48;13.93;;;26.10;98.00;;;;;;5076683;28;20031;-88
2021/09/09 07:27:11;;;;;;;16.25;13.13;;;26.10;98.00;;;;;;5093098;28;20108;-88
2021/09/09 07:29:42;;;;;;;17.00;12.82;;;26.10;98.00;;;;;;5096193;28;20101;-87
2021/09/09 07:32:08;;;;;;;14.32;11.93;;;26.10;98.00;;;;;;5094777;28;20028;-88
2021/09/09 07:34:36;;;;;;;16.45;13.25;;;26.10;98.00;;;;;;5093994;28;20028;-88
2021/09/09 07:37:06;;;;;;;13.82;11.98;;;26.10;98.00;;;;;;5093230;28;20036;-87
2021/09/09 07:39:32;;;;;;;16.10;12.77;;;26.10;98.20;;;;;;5075734;28;20035;-86
2021/09/09 07:41:57;;;;;;;14.38;12.48;;;26.10;98.00;;;;;;5092047;28;20024;-87
2021/09/09 07:44:23;;;;;;;16.30;12.68;;;26.10;98.00;;;;;;5092384;28;20485;-86
2021/09/09 07:46:49;;;;;;;14.98;12.55;;;26.10;97.90;;;;;;5075478;28;20043;-85
2021/09/09 07:49:15;;;;;;;15.30;13.07;;;26.00;97.90;;;;;;5076110;28;20068;-85
2021/09/09 07:51:42;;;;;;;16.60;12.48;;;26.00;97.90;;;;;;5092714;28;20032;-85
2021/09/09 07:54:08;;;;;;;14.73;12.60;;;26.00;98.00;;;;;;5093328;28;20028;-85
2021/09/09 07:56:40;;;;;;;15.77;12.38;;;25.90;97.90;;;;;;5092169;28;20039;-85
2021/09/09 07:59:08;;;;;;;15.00;12.25;;;25.90;98.00;;;;;;5092794;28;20055;-86
2021/09/09 08:01:36;;;;;;;14.23;12.35;;;25.90;98.00;;;;;;5091764;28;20470;-86
2021/09/09 08:04:02;;;;;;;16.10;12.45;;;25.80;98.00;;;;;;5091956;28;20024;-86
2021/09/09 08:06:27;;;;;;;14.88;11.85;;;25.80;98.00;;;;;;5091716;28;20039;-86
2021/09/09 08:08:53;;;;;;;15.95;12.88;;;25.80;98.00;;;;;;5092601;28;20031;-86
2021/09/09 08:11:19;;;;;;;15.05;12.20;;;25.80;98.00;;;;;;5078925;28;20490;-86
2021/09/09 08:13:51;;;;;;;15.52;11.77;;;25.80;98.00;;;;;;5095439;28;20035;-86
2021/09/09 08:16:17;;;;;;;17.13;12.90;;;25.80;98.00;;;;;;5096502;28;20400;-87
2021/09/09 08:18:43;;;;;;;16.10;12.40;;;25.80;98.00;;;;;;5095000;28;20052;-86
2021/09/09 08:21:08;;;;;;;16.35;13.00;;;25.80;98.10;;;;;;5095707;28;20389;-86
2021/09/09 08:23:34;;;;;;;15.95;12.23;;;25.80;98.20;;;;;;5095265;28;20386;-85
2021/09/09 08:26:00;;;;;;;14.90;11.35;;;25.80;98.20;;;;;;5078377;28;20478;-86
2021/09/09 08:28:26;;;;;;;19.55;13.13;;;25.90;98.20;;;;;;5096236;28;20060;-85
2021/09/09 08:30:51;;;;;;;15.77;12.85;;;25.90;98.20;;;;;;5094981;28;20485;-84
2021/09/09 08:33:17;;;;;;;17.23;12.50;;;25.90;98.20;;;;;;5095198;28;20489;-84
2021/09/09 08:35:43;;;;;;;15.68;12.05;;;25.90;98.20;;;;;;5076999;28;20036;-84
2021/09/09 08:38:09;;;;;;;21.40;12.65;;;25.90;98.10;;;;;;5094896;28;20036;-84
2021/09/09 08:40:36;;;;;;;18.08;13.05;;;25.90;98.00;;;;;;5095561;28;20499;-86
2021/09/09 08:43:03;;;;;;;17.85;13.45;;;25.90;97.90;;;;;;5096088;28;20046;-85
2021/09/09 08:45:28;;;;;;;17.95;12.60;;;26.00;97.90;;;;;;5095770;28;20458;-85
2021/09/09 08:47:58;;;;;;;17.15;12.57;;;25.90;97.90;;;;;;5094378;28;20114;-84
2021/09/09 08:50:23;;;;;;;18.50;12.50;;;26.00;98.00;;;;;;5095913;28;20111;-85
2021/09/09 08:52:50;;;;;;;16.77;11.98;;;26.00;98.00;;;;;;5077798;28;20103;-85
2021/09/09 08:55:16;;;;;;;15.93;12.15;;;26.00;98.00;;;;;;5094726;28;20032;-85
2021/09/09 08:57:41;;;;;;;16.75;11.88;;;26.00;98.10;;;;;;5077719;28;20081;-85
2021/09/09 09:00:08;;;;;;;15.52;11.52;;;26.00;98.10;;;;;;5077972;28;20123;-84
2021/09/09 09:02:52;;;;;;;15.80;11.63;;;26.00;98.20;;;;;;5096349;28;20055;-90
2021/09/09 09:05:18;;;;;;;13.13;10.35;;;26.00;98.20;;;;;;5078881;28;20384;-91
2021/09/09 09:07:44;;;;;;;13.00;10.68;;;26.00;98.20;;;;;;5077945;28;20127;-89
2021/09/09 09:10:10;;;;;;;12.55;10.40;;;26.00;98.20;;;;;;5094017;28;20119;-85
2021/09/09 09:12:50;;;;;;;13.77;10.35;;;26.00;98.20;;;;;;5093954;28;20039;-88
2021/09/09 09:15:27;;;;;;;12.25;9.68;;;26.10;98.20;;;;;;5093632;28;20043;-86
2021/09/09 09:17:57;;;;;;;14.85;10.43;;;26.10;98.20;;;;;;5094430;28;20108;-86
2021/09/09 09:20:27;;;;;;;13.88;11.07;;;26.10;98.20;;;;;;5096250;28;20036;-86
2021/09/09 09:22:54;;;;;;;13.90;10.38;;;26.10;98.10;;;;;;5094917;28;20484;-86
2021/09/09 09:25:50;;;;;;;14.73;10.45;;;26.10;98.10;;;;;;5094565;28;20020;-85
2021/09/09 09:28:36;;;;;;;13.45;10.57;;;26.10;98.10;;;;;;5094142;28;20024;-85
2021/09/09 09:31:05;;;;;;;14.38;12.15;;;26.10;98.10;;;;;;5093972;28;20024;-86
2021/09/09 09:33:36;;;;;;;14.27;11.25;;;26.20;98.10;;;;;;5095339;28;20024;-86
2021/09/09 09:36:16;;;;;;;14.00;11.48;;;26.20;98.10;;;;;;5095016;28;20051;-86
2021/09/09 09:38:43;;;;;;;14.57;11.65;;;26.10;98.10;;;;;;5093777;28;20074;-86
2021/09/09 09:41:09;;;;;;;13.77;11.52;;;26.20;98.10;;;;;;5093775;28;20035;-86
2021/09/09 09:43:35;;;;;;;12.85;10.95;;;26.20;98.10;;;;;;5093896;28;20047;-87
2021/09/09 09:46:02;;;;;;;12.95;11.38;;;26.20;98.10;;;;;;5093686;28;20024;-87
2021/09/09 09:48:30;;;;;;;13.43;11.32;;;26.20;98.10;;;;;;5094649;28;20069;-87
2021/09/09 09:50:56;;;;;;;14.20;11.68;;;26.20;98.10;;;;;;5093632;28;20115;-87
2021/09/09 09:53:22;;;;;;;14.88;11.70;;;26.20;98.10;;;;;;5094891;28;20055;-87
2021/09/09 09:55:50;;;;;;;13.25;11.20;;;26.20;98.10;;;;;;5094408;28;20399;-85
2021/09/09 09:58:16;;;;;;;12.95;11.13;;;26.20;98.10;;;;;;5093579;28;20090;-85
2021/09/09 10:00:42;;;;;;;12.23;10.80;;;26.20;98.30;;;;;;5092948;28;20047;-86
2021/09/09 10:03:08;;;;;;;12.40;10.55;;;26.20;98.10;;;;;;5093522;28;20032;-86
2021/09/09 10:05:38;;;;;;;14.10;11.88;;;26.20;98.10;;;;;;5094386;28;20031;-85
2021/09/09 10:08:05;;;;;;;13.20;11.77;;;26.20;98.10;;;;;;5093108;28;20123;-86
2021/09/09 10:10:32;;;;;;;13.02;11.18;;;26.20;98.10;;;;;;5093271;28;20445;-85
2021/09/09 10:12:58;;;;;;;14.25;12.02;;;26.20;98.10;;;;;;5093997;28;20160;-85
2021/09/09 10:15:24;;;;;;;14.27;11.88;;;26.20;98.10;;;;;;5094474;28;20024;-86
2021/09/09 10:17:52;;;;;;;13.25;11.40;;;26.30;98.10;;;;;;5093609;28;20084;-86
2021/09/09 10:20:31;;;;;;;13.40;11.02;;;26.20;98.10;;;;;;5094099;28;20424;-86
2021/09/09 10:23:01;;;;;;;13.68;10.93;;;26.20;98.10;;;;;;5094162;28;20051;-86
2021/09/09 10:25:48;;;;;;;14.55;11.68;;;26.30;98.10;;;;;;5092623;28;20115;-85
2021/09/09 10:28:33;;;;;;;12.32;10.98;;;26.30;98.20;;;;;;5094341;28;20107;-85
2021/09/09 10:31:15;;;;;;;13.50;11.57;;;26.30;98.10;;;;;;5094082;28;20031;-86
2021/09/09 10:33:51;;;;;;;13.80;11.60;;;26.30;98.10;;;;;;5091704;28;20113;-85
2021/09/09 10:36:43;;;;;;;14.65;12.05;;;26.20;98.10;;;;;;5092943;28;20530;-85
2021/09/09 10:39:17;;;;;;;13.13;11.73;;;26.20;98.10;;;;;;5092622;28;20030;-86
2021/09/09 10:41:43;;;;;;;;;;;26.30;98.20;;;;;;5093290;28;20024;-86
2021/09/09 10:44:09;;;;;;;14.15;11.75;;;26.30;98.20;;;;;;5092466;28;20029;-86
2021/09/09 10:46:38;;;;;;;12.00;10.80;;;26.30;98.20;;;;;;5092619;28;20031;-86
2021/09/09 10:49:19;;;;;;;11.70;10.32;;;26.30;98.20;;;;;;5093659;28;20077;-86
2021/09/09 10:52:11;;;;;;;12.05;10.75;;;26.30;98.20;;;;;;5093851;28;20026;-85
2021/09/09 10:55:02;;;;;;;11.95;10.60;;;26.30;98.20;;;;;;5092447;28;20027;-86
2021/09/09 10:57:27;;;;;;;12.85;10.70;;;26.30;98.20;;;;;;5093867;28;20109;-87
2021/09/09 10:59:53;;;;;;;15.05;11.50;;;26.30;98.20;;;;;;5092277;28;20499;-87
2021/09/09 11:02:19;;;;;;;11.88;10.57;;;26.30;98.20;;;;;;5093432;28;20032;-87
2021/09/09 11:04:48;;;;;;;14.07;10.43;;;26.30;98.20;;;;;;5093660;28;20024;-86
2021/09/09 11:07:23;;;;;;;11.95;10.00;;;26.30;98.50;;;;;;5092293;28;20051;-87
2021/09/09 11:10:01;;;;;;;12.35;10.38;;;26.30;98.20;;;;;;5075531;28;20400;-87
2021/09/09 11:12:41;;;;;;;11.75;10.50;;;26.30;98.20;;;;;;5092187;28;20461;-86
2021/09/09 11:15:10;;;;;;;12.70;9.93;;;26.30;98.30;;;;;;5092126;28;20106;-86
2021/09/09 11:17:37;;;;;;;11.57;9.75;;;26.30;98.50;;;;;;5093284;28;20052;-87
2021/09/09 11:20:08;;;;;;;12.18;9.95;;;26.30;98.30;;;;;;5075071;28;20036;-87
2021/09/09 11:22:34;;;;;;;12.10;9.95;;;26.30;98.20;;;;;;5093512;28;20028;-87
2021/09/09 11:25:00;;;;;;;11.90;10.27;;;26.30;98.20;;;;;;5093214;28;20027;-87
2021/09/09 11:27:33;;;;;;;11.82;10.10;;;26.30;98.30;;;;;;5093447;28;20036;-86
2021/09/09 11:30:00;;;;;;;10.77;9.52;;;26.30;98.30;;;;;;5093161;28;20024;-86
2021/09/09 11:32:27;;;;;;;10.02;8.98;;;26.30;98.30;;;;;;5075523;28;20374;-86
2021/09/09 11:35:03;;;;;;;12.43;10.00;;;26.30;98.30;;;;;;5091854;28;20123;-86
2021/09/09 11:37:29;;;;;;;12.02;9.85;;;26.30;98.30;;;;;;5093395;28;20036;-86
2021/09/09 11:40:03;;;;;;;10.30;9.20;;;26.30;98.30;;;;;;5092280;28;20043;-87
2021/09/09 11:42:29;;;;;;;10.18;9.13;;;26.30;98.30;;;;;;5091894;28;20057;-86
2021/09/09 11:44:59;;;;;;;12.20;9.48;;;26.30;98.40;;;;;;5094602;28;20032;-87
2021/09/09 11:47:27;;;;;;;12.13;9.75;;;26.30;98.40;;;;;;5097379;28;20025;-86
2021/09/09 11:50:00;;;;;;;10.38;9.20;;;26.30;98.40;;;;;;5095874;28;20434;-87
2021/09/09 11:52:26;;;;;;;9.85;8.82;;;26.30;98.40;;;;;;5096195;28;20060;-85
2021/09/09 11:54:52;;;;;;;10.07;8.60;;;26.40;98.50;;;;;;5062441;28;20059;-86
2021/09/09 11:57:18;;;;;;;11.48;9.32;;;26.40;98.50;;;;;;5095672;28;20036;-88
2021/09/09 11:59:52;;;;;;;10.70;9.07;;;26.40;98.60;;;;;;5096985;28;20028;-86
2021/09/09 12:02:32;;;;;;;10.63;9.50;;;26.30;98.60;;;;;;5095193;28;20474;-87
2021/09/09 12:05:01;;;;;;;10.90;9.35;;;26.30;98.60;;;;;;5096964;28;20043;-87
2021/09/09 12:07:29;;;;;;;11.30;9.15;;;26.30;98.60;;;;;;5097135;28;20028;-86
2021/09/09 12:10:02;;;;;;;9.65;8.38;;;26.40;98.70;;;;;;5096495;28;20076;-87
2021/09/09 12:12:33;;;;;;;11.27;8.77;;;26.30;98.70;;;;;;5095458;28;20486;-86
2021/09/09 12:15:01;;;;;;;9.27;8.18;;;26.40;98.80;;;;;;5096781;28;20028;-87
2021/09/09 12:17:28;;;;;;;9.95;8.93;;;26.40;98.80;;;;;;5078530;28;20059;-86
2021/09/09 12:20:02;;;;;;;10.23;8.90;;;26.40;98.90;;;;;;5095620;28;20458;-87
2021/09/09 12:22:47;;;;;;;11.27;8.38;;;26.40;98.90;;;;;;5097100;28;20024;-86
2021/09/09 12:25:13;;;;;;;10.27;9.07;;;26.40;99.00;;;;;;5096401;28;20028;-87
2021/09/09 12:27:57;;;;;;;10.05;8.98;;;26.40;99.00;;;;;;5095317;28;20122;-86
2021/09/09 12:30:24;;;;;;;10.32;8.65;;;26.30;99.00;;;;;;5096342;28;20024;-87